sensor_id;sensor_type;location;lat;lon;timestamp;pressure;altitude;pressure_sealevel;temperature;humidity
18784;BME280;9520;50.954;6.968;2023-01-08T00:00:20;100024.63;;;18.01;44.28
18784;BME280;9520;50.954;6.968;2023-01-08T00:00:42;100006.63;;;17.89;44.24
18784;BME280;9520;50.954;6.968;2023-01-08T00:01:05;100027.13;;;18.04;44.22
18784;BME280;9520;50.954;6.968;2023-01-08T00:01:27;100033.22;;;18.06;44.14
18784;BME280;9520;50.954;6.968;2023-01-08T00:01:49;100028.69;;;18.08;44.14
18784;BME280;9520;50.954;6.968;2023-01-08T00:02:11;100025.47;;;18.02;44.18
18784;BME280;9520;50.954;6.968;2023-01-08T00:02:32;100013.44;;;17.95;44.13
18784;BME280;9520;50.954;6.968;2023-01-08T00:02:56;100026.19;;;17.90;44.34
18784;BME280;9520;50.954;6.968;2023-01-08T00:03:18;100030.31;;;17.95;44.28
18784;BME280;9520;50.954;6.968;2023-01-08T00:03:40;100026.53;;;17.99;44.19
18784;BME280;9520;50.954;6.968;2023-01-08T00:04:03;100029.00;;;18.02;44.29
18784;BME280;9520;50.954;6.968;2023-01-08T00:04:25;100028.06;;;18.03;44.33
18784;BME280;9520;50.954;6.968;2023-01-08T00:04:47;100029.81;;;18.04;44.13
18784;BME280;9520;50.954;6.968;2023-01-08T00:05:08;100014.47;;;18.08;44.28
18784;BME280;9520;50.954;6.968;2023-01-08T00:05:32;100024.81;;;18.14;43.94
18784;BME280;9520;50.954;6.968;2023-01-08T00:05:54;100026.78;;;18.10;43.93
18784;BME280;9520;50.954;6.968;2023-01-08T00:06:18;100013.59;;;18.07;43.93
18784;BME280;9520;50.954;6.968;2023-01-08T00:06:41;100018.88;;;18.09;43.99
18784;BME280;9520;50.954;6.968;2023-01-08T00:07:04;100025.13;;;18.08;44.13
18784;BME280;9520;50.954;6.968;2023-01-08T00:07:25;100028.88;;;18.05;44.12
18784;BME280;9520;50.954;6.968;2023-01-08T00:07:47;100026.00;;;18.08;44.22
18784;BME280;9520;50.954;6.968;2023-01-08T00:08:10;100012.75;;;18.07;43.99
18784;BME280;9520;50.954;6.968;2023-01-08T00:08:32;100012.75;;;18.07;43.97
18784;BME280;9520;50.954;6.968;2023-01-08T00:08:54;100019.53;;;18.12;44.07
18784;BME280;9520;50.954;6.968;2023-01-08T00:09:16;100019.47;;;18.14;44.12
18784;BME280;9520;50.954;6.968;2023-01-08T00:09:38;100018.00;;;18.08;44.22
18784;BME280;9520;50.954;6.968;2023-01-08T00:10:00;100028.22;;;18.16;43.98
18784;BME280;9520;50.954;6.968;2023-01-08T00:10:21;100026.59;;;18.13;44.02
18784;BME280;9520;50.954;6.968;2023-01-08T00:10:43;100027.38;;;18.16;44.07
18784;BME280;9520;50.954;6.968;2023-01-08T00:11:05;100020.94;;;18.04;44.11
18784;BME280;9520;50.954;6.968;2023-01-08T00:11:28;100022.13;;;17.98;44.19
18784;BME280;9520;50.954;6.968;2023-01-08T00:11:49;100015.94;;;17.98;44.45
18784;BME280;9520;50.954;6.968;2023-01-08T00:12:11;100014.06;;;18.00;44.53
18784;BME280;9520;50.954;6.968;2023-01-08T00:12:33;100012.25;;;18.00;44.57
18784;BME280;9520;50.954;6.968;2023-01-08T00:12:56;100022.72;;;18.03;44.50
18784;BME280;9520;50.954;6.968;2023-01-08T00:13:18;100014.72;;;18.03;44.25
18784;BME280;9520;50.954;6.968;2023-01-08T00:13:39;100018.84;;;17.93;44.38
18784;BME280;9520;50.954;6.968;2023-01-08T00:14:01;100017.13;;;17.92;44.47
18784;BME280;9520;50.954;6.968;2023-01-08T00:14:24;100006.78;;;17.86;44.76
18784;BME280;9520;50.954;6.968;2023-01-08T00:14:46;100010.91;;;17.76;44.58
18784;BME280;9520;50.954;6.968;2023-01-08T00:15:08;100019.44;;;17.83;44.98
18784;BME280;9520;50.954;6.968;2023-01-08T00:15:31;100021.84;;;17.87;44.57
18784;BME280;9520;50.954;6.968;2023-01-08T00:15:53;100011.69;;;17.78;44.72
18784;BME280;9520;50.954;6.968;2023-01-08T00:16:17;100021.59;;;17.76;45.04
18784;BME280;9520;50.954;6.968;2023-01-08T00:16:39;100016.84;;;17.81;44.73
18784;BME280;9520;50.954;6.968;2023-01-08T00:17:01;100018.50;;;17.84;44.69
18784;BME280;9520;50.954;6.968;2023-01-08T00:17:24;100012.13;;;17.86;44.78
18784;BME280;9520;50.954;6.968;2023-01-08T00:17:46;100004.13;;;17.86;44.90
18784;BME280;9520;50.954;6.968;2023-01-08T00:18:09;100023.50;;;17.90;44.85
18784;BME280;9520;50.954;6.968;2023-01-08T00:18:32;99998.09;;;17.83;44.72
18784;BME280;9520;50.954;6.968;2023-01-08T00:18:54;100014.72;;;17.88;44.79
18784;BME280;9520;50.954;6.968;2023-01-08T00:19:16;100014.56;;;17.91;44.77
18784;BME280;9520;50.954;6.968;2023-01-08T00:19:38;99996.56;;;17.79;44.81
18784;BME280;9520;50.954;6.968;2023-01-08T00:20:03;100010.00;;;17.93;44.84
18784;BME280;9520;50.954;6.968;2023-01-08T00:20:25;99975.22;;;17.79;44.94
18784;BME280;9520;50.954;6.968;2023-01-08T00:20:47;100009.72;;;17.97;44.68
18784;BME280;9520;50.954;6.968;2023-01-08T00:21:10;100012.25;;;18.00;44.60
18784;BME280;9520;50.954;6.968;2023-01-08T00:21:32;100012.06;;;18.03;44.49
18784;BME280;9520;50.954;6.968;2023-01-08T00:21:53;100003.00;;;18.06;44.54
18784;BME280;9520;50.954;6.968;2023-01-08T00:22:16;100002.00;;;18.08;44.50
18784;BME280;9520;50.954;6.968;2023-01-08T00:22:38;100008.13;;;18.10;44.49
18784;BME280;9520;50.954;6.968;2023-01-08T00:22:59;100004.56;;;17.94;44.73
18784;BME280;9520;50.954;6.968;2023-01-08T00:23:21;100002.78;;;17.95;44.83
18784;BME280;9520;50.954;6.968;2023-01-08T00:23:44;99997.94;;;18.01;44.37
18784;BME280;9520;50.954;6.968;2023-01-08T00:24:06;100005.84;;;18.03;44.43
18784;BME280;9520;50.954;6.968;2023-01-08T00:24:28;100002.25;;;18.04;44.59
18784;BME280;9520;50.954;6.968;2023-01-08T00:24:49;100006.78;;;18.02;44.60
18784;BME280;9520;50.954;6.968;2023-01-08T00:25:12;100000.72;;;18.00;44.63
18784;BME280;9520;50.954;6.968;2023-01-08T00:25:34;100003.13;;;18.04;44.67
18784;BME280;9520;50.954;6.968;2023-01-08T00:25:55;99986.31;;;18.02;44.62
18784;BME280;9520;50.954;6.968;2023-01-08T00:26:17;99998.72;;;18.03;44.67
18784;BME280;9520;50.954;6.968;2023-01-08T00:26:41;99985.91;;;17.94;44.74
18784;BME280;9520;50.954;6.968;2023-01-08T00:27:03;99995.88;;;18.06;44.45
18784;BME280;9520;50.954;6.968;2023-01-08T00:27:25;99998.38;;;18.09;44.66
18784;BME280;9520;50.954;6.968;2023-01-08T00:27:46;99986.75;;;18.10;44.52
18784;BME280;9520;50.954;6.968;2023-01-08T00:28:09;99966.88;;;18.00;44.33
18784;BME280;9520;50.954;6.968;2023-01-08T00:28:31;99983.97;;;18.12;44.61
18784;BME280;9520;50.954;6.968;2023-01-08T00:28:53;99987.50;;;18.12;44.55
18784;BME280;9520;50.954;6.968;2023-01-08T00:29:17;99984.84;;;18.12;44.46
18784;BME280;9520;50.954;6.968;2023-01-08T00:29:38;99990.38;;;18.09;44.37
18784;BME280;9520;50.954;6.968;2023-01-08T00:30:00;99978.03;;;18.07;44.41
18784;BME280;9520;50.954;6.968;2023-01-08T00:30:22;99993.19;;;18.06;44.43
18784;BME280;9520;50.954;6.968;2023-01-08T00:30:44;99980.81;;;18.05;44.42
18784;BME280;9520;50.954;6.968;2023-01-08T00:31:08;99983.84;;;17.99;44.65
18784;BME280;9520;50.954;6.968;2023-01-08T00:31:30;99991.72;;;18.01;44.61
18784;BME280;9520;50.954;6.968;2023-01-08T00:31:52;99965.75;;;17.89;44.77
18784;BME280;9520;50.954;6.968;2023-01-08T00:32:14;99989.84;;;17.87;44.81
18784;BME280;9520;50.954;6.968;2023-01-08T00:32:36;99979.19;;;17.87;45.21
18784;BME280;9520;50.954;6.968;2023-01-08T00:32:57;99983.50;;;17.90;45.05
18784;BME280;9520;50.954;6.968;2023-01-08T00:33:21;99985.03;;;17.94;44.87
18784;BME280;9520;50.954;6.968;2023-01-08T00:33:43;99989.31;;;17.96;44.74
18784;BME280;9520;50.954;6.968;2023-01-08T00:34:05;99983.97;;;17.96;44.64
18784;BME280;9520;50.954;6.968;2023-01-08T00:34:27;99991.84;;;17.84;45.11
18784;BME280;9520;50.954;6.968;2023-01-08T00:34:49;99963.34;;;17.68;44.87
18784;BME280;9520;50.954;6.968;2023-01-08T00:35:11;99954.22;;;17.73;45.11
18784;BME280;9520;50.954;6.968;2023-01-08T00:35:32;99981.31;;;17.96;44.81
18784;BME280;9520;50.954;6.968;2023-01-08T00:35:54;99983.97;;;17.96;44.78
18784;BME280;9520;50.954;6.968;2023-01-08T00:36:18;99994.44;;;17.85;44.85
18784;BME280;9520;50.954;6.968;2023-01-08T00:36:40;99966.97;;;17.83;44.91
18784;BME280;9520;50.954;6.968;2023-01-08T00:37:02;99987.03;;;17.90;44.74
18784;BME280;9520;50.954;6.968;2023-01-08T00:37:23;99980.03;;;17.72;44.87
18784;BME280;9520;50.954;6.968;2023-01-08T00:37:47;99986.75;;;17.79;44.81
18784;BME280;9520;50.954;6.968;2023-01-08T00:38:10;99990.38;;;17.78;45.11
18784;BME280;9520;50.954;6.968;2023-01-08T00:38:32;99966.06;;;17.51;45.32
18784;BME280;9520;50.954;6.968;2023-01-08T00:38:54;99985.72;;;17.66;45.17
18784;BME280;9520;50.954;6.968;2023-01-08T00:39:16;99995.03;;;17.75;45.10
18784;BME280;9520;50.954;6.968;2023-01-08T00:39:38;99997.44;;;17.79;45.17
18784;BME280;9520;50.954;6.968;2023-01-08T00:40:00;99992.03;;;17.81;45.06
18784;BME280;9520;50.954;6.968;2023-01-08T00:40:22;99982.09;;;17.83;45.07
18784;BME280;9520;50.954;6.968;2023-01-08T00:40:43;99979.34;;;17.84;45.03
18784;BME280;9520;50.954;6.968;2023-01-08T00:41:06;99984.44;;;17.89;45.11
18784;BME280;9520;50.954;6.968;2023-01-08T00:41:27;99967.47;;;17.74;44.92
18784;BME280;9520;50.954;6.968;2023-01-08T00:41:49;99972.38;;;17.82;44.78
18784;BME280;9520;50.954;6.968;2023-01-08T00:42:11;99986.91;;;17.92;44.78
18784;BME280;9520;50.954;6.968;2023-01-08T00:42:33;99984.19;;;17.93;44.98
18784;BME280;9520;50.954;6.968;2023-01-08T00:42:55;99984.19;;;17.93;44.88
18784;BME280;9520;50.954;6.968;2023-01-08T00:43:17;99988.97;;;18.02;44.66
18784;BME280;9520;50.954;6.968;2023-01-08T00:43:39;99987.25;;;18.01;44.70
18784;BME280;9520;50.954;6.968;2023-01-08T00:44:01;99986.25;;;18.04;44.73
18784;BME280;9520;50.954;6.968;2023-01-08T00:44:23;99982.09;;;17.98;44.72
18784;BME280;9520;50.954;6.968;2023-01-08T00:44:45;99987.25;;;18.01;44.73
18784;BME280;9520;50.954;6.968;2023-01-08T00:45:07;99983.66;;;18.02;44.60
18784;BME280;9520;50.954;6.968;2023-01-08T00:45:29;99984.44;;;18.04;44.68
18784;BME280;9520;50.954;6.968;2023-01-08T00:45:52;99982.44;;;18.08;44.47
18784;BME280;9520;50.954;6.968;2023-01-08T00:46:14;99982.50;;;18.06;44.75
18784;BME280;9520;50.954;6.968;2023-01-08T00:46:36;99981.66;;;18.06;44.60
18784;BME280;9520;50.954;6.968;2023-01-08T00:46:57;99984.25;;;18.07;44.56
18784;BME280;9520;50.954;6.968;2023-01-08T00:47:20;99951.28;;;17.93;44.51
18784;BME280;9520;50.954;6.968;2023-01-08T00:47:42;99972.44;;;18.11;44.53
18784;BME280;9520;50.954;6.968;2023-01-08T00:48:04;99976.09;;;18.10;44.44
18784;BME280;9520;50.954;6.968;2023-01-08T00:48:27;99976.09;;;18.10;44.43
18784;BME280;9520;50.954;6.968;2023-01-08T00:48:51;99974.50;;;18.06;44.39
18784;BME280;9520;50.954;6.968;2023-01-08T00:49:13;99972.03;;;18.03;44.49
18784;BME280;9520;50.954;6.968;2023-01-08T00:49:34;99981.91;;;18.01;44.56
18784;BME280;9520;50.954;6.968;2023-01-08T00:49:56;99980.38;;;17.97;44.60
18784;BME280;9520;50.954;6.968;2023-01-08T00:50:19;99980.44;;;17.96;44.67
18784;BME280;9520;50.954;6.968;2023-01-08T00:50:40;99971.28;;;17.86;44.86
18784;BME280;9520;50.954;6.968;2023-01-08T00:51:02;99982.72;;;17.88;44.86
18784;BME280;9520;50.954;6.968;2023-01-08T00:51:24;99978.41;;;17.85;44.92
18784;BME280;9520;50.954;6.968;2023-01-08T00:51:46;99987.28;;;17.86;44.96
18784;BME280;9520;50.954;6.968;2023-01-08T00:52:08;99974.78;;;17.86;45.08
18784;BME280;9520;50.954;6.968;2023-01-08T00:52:30;99981.59;;;17.92;44.94
18784;BME280;9520;50.954;6.968;2023-01-08T00:52:52;99963.34;;;17.84;44.91
18784;BME280;9520;50.954;6.968;2023-01-08T00:53:15;99976.25;;;17.92;44.88
18784;BME280;9520;50.954;6.968;2023-01-08T00:53:36;99974.03;;;17.84;44.94
18784;BME280;9520;50.954;6.968;2023-01-08T00:53:58;99976.50;;;17.87;44.89
18784;BME280;9520;50.954;6.968;2023-01-08T00:54:20;99965.22;;;17.82;44.77
18784;BME280;9520;50.954;6.968;2023-01-08T00:54:43;99971.78;;;17.92;44.97
18784;BME280;9520;50.954;6.968;2023-01-08T00:55:05;99974.28;;;17.95;44.91
18784;BME280;9520;50.954;6.968;2023-01-08T00:55:27;99977.72;;;17.97;44.88
18784;BME280;9520;50.954;6.968;2023-01-08T00:55:49;99971.25;;;18.01;44.88
18784;BME280;9520;50.954;6.968;2023-01-08T00:56:12;99972.56;;;17.94;44.91
18784;BME280;9520;50.954;6.968;2023-01-08T00:56:33;99979.09;;;17.73;45.30
18784;BME280;9520;50.954;6.968;2023-01-08T00:56:55;99979.78;;;17.77;45.08
18784;BME280;9520;50.954;6.968;2023-01-08T00:57:17;99957.94;;;17.70;45.11
18784;BME280;9520;50.954;6.968;2023-01-08T00:57:40;99980.03;;;17.72;45.29
18784;BME280;9520;50.954;6.968;2023-01-08T00:58:01;99974.00;;;17.68;45.40
18784;BME280;9520;50.954;6.968;2023-01-08T00:58:23;99953.81;;;17.64;45.25
18784;BME280;9520;50.954;6.968;2023-01-08T00:58:45;99976.16;;;17.78;45.26
18784;BME280;9520;50.954;6.968;2023-01-08T00:59:07;99973.25;;;17.82;45.19
18784;BME280;9520;50.954;6.968;2023-01-08T00:59:29;99958.53;;;17.75;45.05
18784;BME280;9520;50.954;6.968;2023-01-08T00:59:51;99981.06;;;17.69;45.17
18784;BME280;9520;50.954;6.968;2023-01-08T01:00:14;99968.00;;;17.81;45.15
18784;BME280;9520;50.954;6.968;2023-01-08T01:00:36;99970.34;;;17.71;45.18
18784;BME280;9520;50.954;6.968;2023-01-08T01:00:59;99960.53;;;17.39;45.49
18784;BME280;9520;50.954;6.968;2023-01-08T01:01:20;99975.09;;;17.16;46.07
18784;BME280;9520;50.954;6.968;2023-01-08T01:01:42;99968.91;;;17.15;46.40
18784;BME280;9520;50.954;6.968;2023-01-08T01:02:04;99965.56;;;17.27;46.41
18784;BME280;9520;50.954;6.968;2023-01-08T01:02:27;99978.88;;;17.45;46.12
18784;BME280;9520;50.954;6.968;2023-01-08T01:02:49;99973.81;;;17.56;45.70
18784;BME280;9520;50.954;6.968;2023-01-08T01:03:11;99974.53;;;17.59;45.61
18784;BME280;9520;50.954;6.968;2023-01-08T01:03:34;99981.84;;;17.72;45.70
18784;BME280;9520;50.954;6.968;2023-01-08T01:03:57;99980.56;;;17.79;45.44
18784;BME280;9520;50.954;6.968;2023-01-08T01:04:18;99977.44;;;17.86;45.12
18784;BME280;9520;50.954;6.968;2023-01-08T01:04:40;99974.63;;;17.89;44.99
18784;BME280;9520;50.954;6.968;2023-01-08T01:05:05;99969.28;;;17.89;45.15
18784;BME280;9520;50.954;6.968;2023-01-08T01:05:28;99972.81;;;17.90;44.84
18784;BME280;9520;50.954;6.968;2023-01-08T01:05:49;99983.16;;;17.80;45.23
18784;BME280;9520;50.954;6.968;2023-01-08T01:06:12;99977.28;;;17.74;45.32
18784;BME280;9520;50.954;6.968;2023-01-08T01:06:35;99976.34;;;17.42;45.97
18784;BME280;9520;50.954;6.968;2023-01-08T01:06:57;99965.34;;;17.48;45.88
18784;BME280;9520;50.954;6.968;2023-01-08T01:07:19;99976.66;;;17.20;46.23
18784;BME280;9520;50.954;6.968;2023-01-08T01:07:40;99966.69;;;17.23;46.47
18784;BME280;9520;50.954;6.968;2023-01-08T01:08:03;99974.63;;;17.25;46.42
18784;BME280;9520;50.954;6.968;2023-01-08T01:08:25;99972.31;;;17.35;46.30
18784;BME280;9520;50.954;6.968;2023-01-08T01:08:47;99950.94;;;17.19;46.14
18784;BME280;9520;50.954;6.968;2023-01-08T01:09:10;99966.19;;;17.33;46.38
18784;BME280;9520;50.954;6.968;2023-01-08T01:09:32;99969.59;;;17.19;46.64
18784;BME280;9520;50.954;6.968;2023-01-08T01:09:54;99972.06;;;17.39;46.23
18784;BME280;9520;50.954;6.968;2023-01-08T01:10:16;99971.28;;;17.53;46.01
18784;BME280;9520;50.954;6.968;2023-01-08T01:10:38;99972.72;;;17.60;45.77
18784;BME280;9520;50.954;6.968;2023-01-08T01:11:05;99967.41;;;17.43;46.09
18784;BME280;9520;50.954;6.968;2023-01-08T01:11:27;99976.94;;;17.31;46.32
18784;BME280;9520;50.954;6.968;2023-01-08T01:11:49;99956.31;;;17.35;46.00
18784;BME280;9520;50.954;6.968;2023-01-08T01:12:11;99976.34;;;17.42;46.05
18784;BME280;9520;50.954;6.968;2023-01-08T01:12:35;99975.91;;;17.34;46.40
18784;BME280;9520;50.954;6.968;2023-01-08T01:12:57;99965.94;;;17.37;46.23
18784;BME280;9520;50.954;6.968;2023-01-08T01:13:19;99976.69;;;17.36;46.08
18784;BME280;9520;50.954;6.968;2023-01-08T01:13:40;99982.03;;;17.36;46.26
18784;BME280;9520;50.954;6.968;2023-01-08T01:14:03;99976.63;;;17.53;46.12
18784;BME280;9520;50.954;6.968;2023-01-08T01:14:25;99980.31;;;17.35;46.08
18784;BME280;9520;50.954;6.968;2023-01-08T01:14:46;99979.00;;;17.26;46.35
18784;BME280;9520;50.954;6.968;2023-01-08T01:15:14;99974.31;;;17.14;46.63
18784;BME280;9520;50.954;6.968;2023-01-08T01:15:37;99980.50;;;17.14;46.70
18784;BME280;9520;50.954;6.968;2023-01-08T01:16:00;99988.69;;;17.27;46.55
18784;BME280;9520;50.954;6.968;2023-01-08T01:16:22;99970.97;;;17.10;46.69
18784;BME280;9520;50.954;6.968;2023-01-08T01:16:44;99992.72;;;17.18;46.48
18784;BME280;9520;50.954;6.968;2023-01-08T01:17:09;99976.16;;;16.79;47.34
18784;BME280;9520;50.954;6.968;2023-01-08T01:17:32;99984.63;;;16.87;47.31
18784;BME280;9520;50.954;6.968;2023-01-08T01:17:54;99989.31;;;16.99;47.07
18784;BME280;9520;50.954;6.968;2023-01-08T01:18:15;99993.16;;;17.11;46.88
18784;BME280;9520;50.954;6.968;2023-01-08T01:18:38;99986.81;;;17.29;46.67
18784;BME280;9520;50.954;6.968;2023-01-08T01:19:01;99983.34;;;17.11;46.99
18784;BME280;9520;50.954;6.968;2023-01-08T01:19:23;99947.66;;;16.81;46.98
18784;BME280;9520;50.954;6.968;2023-01-08T01:19:45;99985.66;;;16.84;47.61
18784;BME280;9520;50.954;6.968;2023-01-08T01:20:10;99991.63;;;16.72;47.88
18784;BME280;9520;50.954;6.968;2023-01-08T01:20:32;99992.63;;;16.87;47.67
18784;BME280;9520;50.954;6.968;2023-01-08T01:20:54;99978.69;;;16.65;47.86
18784;BME280;9520;50.954;6.968;2023-01-08T01:21:20;99976.84;;;16.82;47.88
18784;BME280;9520;50.954;6.968;2023-01-08T01:21:43;99982.97;;;17.02;47.37
18784;BME280;9520;50.954;6.968;2023-01-08T01:22:05;99925.41;;;16.82;46.79
18784;BME280;9520;50.954;6.968;2023-01-08T01:22:27;99973.16;;;17.02;47.25
18784;BME280;9520;50.954;6.968;2023-01-08T01:22:49;99963.66;;;17.14;46.81
18784;BME280;9520;50.954;6.968;2023-01-08T01:23:12;99973.50;;;17.29;46.67
18784;BME280;9520;50.954;6.968;2023-01-08T01:23:34;99968.13;;;17.13;47.03
18784;BME280;9520;50.954;6.968;2023-01-08T01:23:57;99969.78;;;16.99;47.32
18784;BME280;9520;50.954;6.968;2023-01-08T01:24:19;99971.41;;;17.18;47.17
18784;BME280;9520;50.954;6.968;2023-01-08T01:24:45;99972.75;;;17.10;47.11
18784;BME280;9520;50.954;6.968;2023-01-08T01:25:08;99968.50;;;17.23;46.77
18784;BME280;9520;50.954;6.968;2023-01-08T01:25:29;99969.47;;;17.38;46.45
18784;BME280;9520;50.954;6.968;2023-01-08T01:25:52;99965.06;;;17.37;46.38
18784;BME280;9520;50.954;6.968;2023-01-08T01:26:15;99965.53;;;17.45;46.30
18784;BME280;9520;50.954;6.968;2023-01-08T01:26:37;99970.34;;;17.54;46.00
18784;BME280;9520;50.954;6.968;2023-01-08T01:27:00;99966.19;;;17.65;45.94
18784;BME280;9520;50.954;6.968;2023-01-08T01:27:23;99967.75;;;17.69;45.75
18784;BME280;9520;50.954;6.968;2023-01-08T01:27:45;99947.47;;;17.50;45.73
18784;BME280;9520;50.954;6.968;2023-01-08T01:28:07;99969.63;;;17.35;46.46
18784;BME280;9520;50.954;6.968;2023-01-08T01:28:29;99971.09;;;17.24;46.48
18784;BME280;9520;50.954;6.968;2023-01-08T01:28:53;99970.13;;;16.93;47.24
18784;BME280;9520;50.954;6.968;2023-01-08T01:29:16;99967.06;;;16.83;47.06
18784;BME280;9520;50.954;6.968;2023-01-08T01:29:38;99947.72;;;16.79;47.19
18784;BME280;9520;50.954;6.968;2023-01-08T01:30:00;99962.03;;;17.11;47.03
18784;BME280;9520;50.954;6.968;2023-01-08T01:30:23;99971.16;;;17.23;46.64
18784;BME280;9520;50.954;6.968;2023-01-08T01:30:45;99967.72;;;17.21;46.87
18784;BME280;9520;50.954;6.968;2023-01-08T01:31:14;99964.91;;;17.40;46.27
18784;BME280;9520;50.954;6.968;2023-01-08T01:31:36;99969.56;;;17.52;46.09
18784;BME280;9520;50.954;6.968;2023-01-08T01:31:58;99975.41;;;17.60;46.11
18784;BME280;9520;50.954;6.968;2023-01-08T01:32:20;99978.81;;;17.62;46.07
18784;BME280;9520;50.954;6.968;2023-01-08T01:32:42;99969.88;;;17.63;45.81
18784;BME280;9520;50.954;6.968;2023-01-08T01:33:04;99976.03;;;17.48;46.06
18784;BME280;9520;50.954;6.968;2023-01-08T01:33:25;99971.63;;;17.47;46.22
18784;BME280;9520;50.954;6.968;2023-01-08T01:34:32;99981.19;;;17.51;46.12
18784;BME280;9520;50.954;6.968;2023-01-08T01:34:55;99974.72;;;17.39;46.28
18784;BME280;9520;50.954;6.968;2023-01-08T01:35:17;99965.81;;;17.56;46.21
18784;BME280;9520;50.954;6.968;2023-01-08T01:35:39;99979.28;;;17.53;46.03
18784;BME280;9520;50.954;6.968;2023-01-08T01:36:01;99980.84;;;17.57;45.90
18784;BME280;9520;50.954;6.968;2023-01-08T01:36:24;99970.06;;;17.60;45.92
18784;BME280;9520;50.954;6.968;2023-01-08T01:36:47;99972.59;;;17.46;46.34
18784;BME280;9520;50.954;6.968;2023-01-08T01:37:10;99975.69;;;17.54;45.86
18784;BME280;9520;50.954;6.968;2023-01-08T01:37:32;99976.31;;;17.59;46.07
18784;BME280;9520;50.954;6.968;2023-01-08T01:37:54;99977.22;;;17.58;45.80
18784;BME280;9520;50.954;6.968;2023-01-08T01:38:16;99983.38;;;17.60;45.92
18784;BME280;9520;50.954;6.968;2023-01-08T01:38:41;99974.44;;;17.61;45.99
18784;BME280;9520;50.954;6.968;2023-01-08T01:39:03;99983.47;;;17.74;45.41
18784;BME280;9520;50.954;6.968;2023-01-08T01:39:25;99985.47;;;17.71;45.84
18784;BME280;9520;50.954;6.968;2023-01-08T01:39:48;99977.44;;;17.86;45.53
18784;BME280;9520;50.954;6.968;2023-01-08T01:40:10;99973.84;;;17.87;45.31
18784;BME280;9520;50.954;6.968;2023-01-08T01:40:31;99975.38;;;17.91;45.06
18784;BME280;9520;50.954;6.968;2023-01-08T01:40:53;99977.88;;;17.79;45.47
18784;BME280;9520;50.954;6.968;2023-01-08T01:41:18;99981.84;;;17.72;45.54
18784;BME280;9520;50.954;6.968;2023-01-08T01:41:44;99982.03;;;17.84;45.31
18784;BME280;9520;50.954;6.968;2023-01-08T01:42:06;99981.47;;;17.62;45.61
18784;BME280;9520;50.954;6.968;2023-01-08T01:42:47;99983.41;;;17.76;45.42
18784;BME280;9520;50.954;6.968;2023-01-08T01:43:11;99975.66;;;17.71;45.44
18784;BME280;9520;50.954;6.968;2023-01-08T01:43:36;99976.09;;;17.79;45.53
18784;BME280;9520;50.954;6.968;2023-01-08T01:44:00;99984.63;;;17.86;45.16
18784;BME280;9520;50.954;6.968;2023-01-08T01:44:42;99984.44;;;17.89;45.20
18784;BME280;9520;50.954;6.968;2023-01-08T01:45:15;99976.94;;;17.95;45.01
18784;BME280;9520;50.954;6.968;2023-01-08T01:45:37;99980.91;;;17.88;45.21
18784;BME280;9520;50.954;6.968;2023-01-08T01:45:58;99975.38;;;17.91;45.33
18784;BME280;9520;50.954;6.968;2023-01-08T01:46:34;99976.09;;;17.95;45.24
18784;BME280;9520;50.954;6.968;2023-01-08T01:46:56;99986.41;;;17.85;45.31
18784;BME280;9520;50.954;6.968;2023-01-08T01:47:21;99973.69;;;17.75;45.43
18784;BME280;9520;50.954;6.968;2023-01-08T01:47:46;99979.44;;;17.83;45.17
18784;BME280;9520;50.954;6.968;2023-01-08T01:48:12;99980.72;;;17.91;45.04
18784;BME280;9520;50.954;6.968;2023-01-08T01:48:36;99983.38;;;17.91;45.29
18784;BME280;9520;50.954;6.968;2023-01-08T01:49:01;99970.16;;;17.90;45.12
18784;BME280;9520;50.954;6.968;2023-01-08T01:49:24;99962.47;;;17.99;44.90
18784;BME280;9520;50.954;6.968;2023-01-08T01:49:52;99977.78;;;18.11;44.79
18784;BME280;9520;50.954;6.968;2023-01-08T01:50:19;99978.38;;;18.17;44.75
18784;BME280;9520;50.954;6.968;2023-01-08T01:50:47;99970.81;;;18.09;44.66
18784;BME280;9520;50.954;6.968;2023-01-08T01:51:09;99973.56;;;18.07;44.78
18784;BME280;9520;50.954;6.968;2023-01-08T01:51:33;99972.28;;;18.15;44.56
18784;BME280;9520;50.954;6.968;2023-01-08T01:52:00;99973.75;;;18.20;44.72
18784;BME280;9520;50.954;6.968;2023-01-08T01:52:29;99962.75;;;18.10;44.65
18784;BME280;9520;50.954;6.968;2023-01-08T01:52:56;99973.91;;;18.01;44.67
18784;BME280;9520;50.954;6.968;2023-01-08T01:53:23;99972.28;;;18.15;44.60
18784;BME280;9520;50.954;6.968;2023-01-08T01:53:46;99972.09;;;18.18;44.60
18784;BME280;9520;50.954;6.968;2023-01-08T01:54:10;99975.16;;;18.26;44.38
18784;BME280;9520;50.954;6.968;2023-01-08T01:54:34;99973.09;;;18.31;44.38
18784;BME280;9520;50.954;6.968;2023-01-08T01:54:59;99977.41;;;18.33;44.20
18784;BME280;9520;50.954;6.968;2023-01-08T01:55:23;99970.03;;;18.23;44.43
18784;BME280;9520;50.954;6.968;2023-01-08T01:55:46;99968.50;;;18.03;44.76
18784;BME280;9520;50.954;6.968;2023-01-08T01:56:08;99965.97;;;18.16;44.64
18784;BME280;9520;50.954;6.968;2023-01-08T01:56:31;99971.91;;;18.21;44.65
18784;BME280;9520;50.954;6.968;2023-01-08T01:56:55;99961.94;;;18.24;44.65
18784;BME280;9520;50.954;6.968;2023-01-08T01:57:17;99967.94;;;18.28;44.56
18784;BME280;9520;50.954;6.968;2023-01-08T01:57:41;99963.56;;;18.27;44.51
18784;BME280;9520;50.954;6.968;2023-01-08T01:58:12;99963.06;;;18.20;44.60
18784;BME280;9520;50.954;6.968;2023-01-08T01:58:34;99965.00;;;18.32;44.53
18784;BME280;9520;50.954;6.968;2023-01-08T01:58:56;99964.81;;;18.35;44.54
18784;BME280;9520;50.954;6.968;2023-01-08T01:59:19;99961.81;;;18.26;44.75
18784;BME280;9520;50.954;6.968;2023-01-08T01:59:41;99966.06;;;18.30;44.63
18784;BME280;9520;50.954;6.968;2023-01-08T02:00:07;99960.88;;;18.27;44.68
18784;BME280;9520;50.954;6.968;2023-01-08T02:00:32;99955.38;;;18.30;44.74
18784;BME280;9520;50.954;6.968;2023-01-08T02:00:58;99947.88;;;18.21;44.79
18784;BME280;9520;50.954;6.968;2023-01-08T02:01:21;99931.38;;;18.14;44.94
18784;BME280;9520;50.954;6.968;2023-01-08T02:01:44;99967.59;;;18.34;44.74
18784;BME280;9520;50.954;6.968;2023-01-08T02:02:06;99950.03;;;18.30;44.94
18784;BME280;9520;50.954;6.968;2023-01-08T02:02:28;99955.38;;;18.30;44.94
18784;BME280;9520;50.954;6.968;2023-01-08T02:02:53;99960.72;;;18.30;45.09
18784;BME280;9520;50.954;6.968;2023-01-08T02:03:21;99960.88;;;18.27;45.00